Sisseton, SD

9:09 PM CDT on September 01, 2015 (GMT -0500)
Sisseton | | Change Station
CLOSE
Current Station
Airport
Location: Sisseton,
Elevation: 1161 ft
Nearby Weather Stations

Elev 1161 ft 45.67 °N, 96.99 °W | Updated 13 minutes ago

Partly Cloudy
Partly Cloudy
72 °F
Feels Like 72 °F
N
7
Wind Variable Wind from South
Gusts 13 mph

Today
High -- | Low -- °F
--% Chance of Precip.
Yesterday
High -- | Low -- °F
Precip. -- in
6:48 AM 8:06 PM
Waning Gibbous, 84% visible
Pressure 29.81 in
Visibility -9999.0 miles
Clouds
Dew Point 70 °F
Humidity 93%
Rainfall 0.00 in
Snow Depth Not available.
UV Not available.
Pollen 10.30 out of 12
Air Quality Not available.
Flu Activity Not available.
METAR K8D3 020156Z AUTO 19006KT 22/21 A2985 RMK AO1 SLP094 T02220211
Pressure 29.81 in
Visibility -9999.0 miles
Clouds
Dew Point 70 °F
Humidity 93%
Rainfall 0.00 in
Snow Depth Not available.
UV Not available.
Pollen 10.30 out of 12
Air Quality Not available.
Flu Activity Not available.
METAR K8D3 020156Z AUTO 19006KT 22/21 A2985 RMK AO1 SLP094 T02220211

10-Day Weather Forecast

×

Almanac

Astronomy

Sep. 01, 2015 Rise Set
Actual Time
Civil Twilight
Nautical Twilight
Astronomical Twilight
Moon
Length of Visible Light
Length of Day
Tomorrow will be .
, % of the Moon is Illuminated

Today's Extremes

State Highs State Lows

Community

WunderPhotos

Upload Photos

1,851,679 photos uploaded!

WunderBlogs® & News

Nearby

Air Quality

  Air Quality AQ Index Pollutant
Not available.

Snow Depth

Station Depth Elevation

Earthquake Activity

City Distance Mag. Time & Date
Minimum magnitude displayed is 2.5.

Coastal Water Temperatures

Place Temperature

Stations

Nearby Weather Stations

Station Location Temp. Windchill Dew Point Humidity Wind Precip. Elev Updated Type